Time;durP1;ratioP1;P1;durP2;ratioP2;P2;SDS_P1;SDS_P2;PMS_P1;PMS_P2;Temp;Humidity;BMP_temperature;BMP_pressure;BME280_temperature;BME280_humidity;BME280_pressure;Samples;Min_cycle;Max_cycle;Signal;HPM_P1;HPM_P2
2023/10/07 00:00:59;;;;;;;6.28;2.10;;;;;;;;;;5047261;28;20049;-79
2023/10/07 00:03:26;;;;;;;8.70;2.20;;;;;;;;;;5044481;28;20049;-79
2023/10/07 00:06:00;;;;;;;7.18;2.20;;;;;;;;;;5048490;28;20045;-78
2023/10/07 00:08:28;;;;;;;7.68;2.30;;;;;;;;;;5050564;28;20048;-80
2023/10/07 00:10:58;;;;;;;7.45;2.30;;;;;;;;;;5047562;28;20045;-81
2023/10/07 00:13:30;;;;;;;5.38;2.05;;;;;;;;;;5046317;28;20057;-79
2023/10/07 00:15:59;;;;;;;8.15;2.30;;;;;;;;;;5043211;28;20128;-80
2023/10/07 00:18:26;;;;;;;5.15;1.92;;;;;;;;;;5042630;28;20049;-79
2023/10/07 00:20:56;;;;;;;6.70;2.13;;;;;;;;;;5024545;28;20042;-79
2023/10/07 00:23:26;;;;;;;7.65;2.38;;;;;;;;;;5021625;28;20169;-80
2023/10/07 00:25:57;;;;;;;5.75;1.92;;;;;;;;;;5020775;28;20263;-79
2023/10/07 00:31:02;;;;;;;6.43;1.85;;;;;;;;;;5029912;28;20043;-79
2023/10/07 00:33:50;;;;;;;5.70;2.03;;;;;;;;;;5036193;28;20041;-80
2023/10/07 00:36:41;;;;;;;6.65;2.10;;;;;;;;;;5044284;28;20059;-79
2023/10/07 00:39:07;;;;;;;6.22;2.00;;;;;;;;;;5040235;28;20045;-79
2023/10/07 00:41:46;;;;;;;4.72;1.80;;;;;;;;;;5039533;28;20045;-79
2023/10/07 00:44:17;;;;;;;6.40;2.13;;;;;;;;;;5032409;28;20054;-80
2023/10/07 00:47:19;;;;;;;6.30;2.40;;;;;;;;;;5029806;28;20052;-80
2023/10/07 00:49:41;;;;;;;4.55;1.90;;;;;;;;;;5036403;28;20041;-81
2023/10/07 00:52:28;;;;;;;6.13;2.00;;;;;;;;;;5044840;28;20053;-80
2023/10/07 01:02:51;;;;;;;7.97;2.25;;;;;;;;;;5051314;28;20061;-79
2023/10/07 01:05:27;;;;;;;7.88;1.90;;;;;;;;;;5048020;28;21022;-81
2023/10/07 01:07:55;;;;;;;5.93;1.83;;;;;;;;;;5044511;28;20256;-80
2023/10/07 01:10:26;;;;;;;5.50;1.80;;;;;;;;;;5030302;28;20041;-80
2023/10/07 01:12:59;;;;;;;4.13;1.63;;;;;;;;;;5023304;28;21323;-81
2023/10/07 01:15:29;;;;;;;5.38;1.73;;;;;;;;;;5021174;28;20044;-81
2023/10/07 01:18:05;;;;;;;5.72;2.03;;;;;;;;;;5019963;28;20357;-81
2023/10/07 01:20:58;;;;;;;6.53;2.25;;;;;;;;;;5047359;28;20575;-77
2023/10/07 01:23:24;;;;;;;8.00;1.90;;;;;;;;;;5047251;28;20052;-80
2023/10/07 01:25:51;;;;;;;5.00;1.90;;;;;;;;;;5046725;28;20043;-80
2023/10/07 01:28:20;;;;;;;6.55;2.15;;;;;;;;;;5048767;28;20050;-80
2023/10/07 01:33:40;;;;;;;6.88;2.50;;;;;;;;;;5015541;28;20053;-79
2023/10/07 01:38:40;;;;;;;3.42;1.63;;;;;;;;;;5022396;28;20041;-79
2023/10/07 01:41:14;;;;;;;6.18;2.40;;;;;;;;;;5030386;28;20049;-79
2023/10/07 01:43:41;;;;;;;5.38;1.80;;;;;;;;;;5028152;28;20052;-79
2023/10/07 01:46:11;;;;;;;5.45;2.00;;;;;;;;;;5025745;28;20042;-78
2023/10/07 01:48:38;;;;;;;5.53;2.20;;;;;;;;;;5026224;28;20443;-81
2023/10/07 01:51:05;;;;;;;6.78;2.00;;;;;;;;;;5008033;28;20046;-81
2023/10/07 01:53:38;;;;;;;6.85;2.13;;;;;;;;;;5030179;28;20137;-80
2023/10/07 01:56:04;;;;;;;8.73;2.13;;;;;;;;;;5027778;28;20435;-79
2023/10/07 01:58:31;;;;;;;5.90;2.10;;;;;;;;;;5032937;28;20301;-81
2023/10/07 02:00:59;;;;;;;6.35;2.40;;;;;;;;;;5029791;28;20393;-80
2023/10/07 02:03:26;;;;;;;6.82;2.33;;;;;;;;;;5025895;28;20072;-79
2023/10/07 02:05:53;;;;;;;6.68;2.13;;;;;;;;;;5028880;28;20053;-79
2023/10/07 02:08:21;;;;;;;8.85;2.75;;;;;;;;;;5033724;28;20051;-79
2023/10/07 02:10:52;;;;;;;7.45;2.25;;;;;;;;;;5028604;28;20108;-81
2023/10/07 02:13:19;;;;;;;7.28;2.50;;;;;;;;;;5038987;28;20057;-78
2023/10/07 02:15:47;;;;;;;5.93;2.20;;;;;;;;;;5036350;28;20036;-79
2023/10/07 02:18:17;;;;;;;7.63;2.30;;;;;;;;;;5032843;28;20049;-79
2023/10/07 02:20:49;;;;;;;6.82;2.00;;;;;;;;;;5040082;28;20066;-80
2023/10/07 02:23:21;;;;;;;4.88;1.90;;;;;;;;;;5039248;28;20030;-79
2023/10/07 02:25:50;;;;;;;8.73;2.13;;;;;;;;;;5027520;28;20046;-77
2023/10/07 02:28:22;;;;;;;5.25;1.90;;;;;;;;;;5027281;28;20050;-79
2023/10/07 02:30:59;;;;;;;5.70;2.13;;;;;;;;;;5025484;28;20326;-80
2023/10/07 02:33:27;;;;;;;6.28;2.05;;;;;;;;;;5026665;28;20034;-80
2023/10/07 02:35:55;;;;;;;8.27;2.30;;;;;;;;;;5021750;28;20048;-81
2023/10/07 02:38:36;;;;;;;5.10;1.65;;;;;;;;;;5017038;28;20069;-82
2023/10/07 02:41:08;;;;;;;8.82;2.33;;;;;;;;;;5048029;28;20212;-81
2023/10/07 02:43:43;;;;;;;5.57;2.17;;;;;;;;;;5018512;28;20045;-81
2023/10/07 02:46:22;;;;;;;6.03;2.20;;;;;;;;;;5002000;28;20046;-81
2023/10/07 02:48:49;;;;;;;6.85;2.38;;;;;;;;;;5051487;28;20065;-80
2023/10/07 02:51:18;;;;;;;8.50;2.60;;;;;;;;;;5051713;28;20041;-79
2023/10/07 02:53:45;;;;;;;5.93;2.33;;;;;;;;;;5049121;28;20091;-82
2023/10/07 02:56:22;;;;;;;7.32;2.08;;;;;;;;;;5053208;28;20048;-78
2023/10/07 02:58:59;;;;;;;5.78;2.10;;;;;;;;;;5048634;28;20049;-80
2023/10/07 03:01:26;;;;;;;6.63;1.90;;;;;;;;;;5042775;28;20053;-80
2023/10/07 03:03:54;;;;;;;4.90;2.30;;;;;;;;;;5043847;28;20128;-81
2023/10/07 03:06:26;;;;;;;6.93;2.20;;;;;;;;;;5051250;28;20157;-81
2023/10/07 03:09:09;;;;;;;6.60;2.28;;;;;;;;;;5042399;28;20049;-80
2023/10/07 03:11:49;;;;;;;8.48;1.90;;;;;;;;;;5043080;28;20758;-80
2023/10/07 03:14:26;;;;;;;7.05;2.67;;;;;;;;;;5029069;28;20046;-81
2023/10/07 03:16:59;;;;;;;6.55;2.45;;;;;;;;;;5025236;28;20088;-79
2023/10/07 03:19:46;;;;;;;6.30;2.35;;;;;;;;;;5021858;28;20295;-81
2023/10/07 03:22:15;;;;;;;9.80;2.58;;;;;;;;;;5040388;28;20439;-79
2023/10/07 03:24:42;;;;;;;9.88;2.53;;;;;;;;;;5022180;28;20046;-78
2023/10/07 03:27:20;;;;;;;6.88;2.15;;;;;;;;;;5021979;28;20882;-81
2023/10/07 03:29:59;;;;;;;6.97;2.40;;;;;;;;;;5021199;28;20413;-81
2023/10/07 03:32:32;;;;;;;7.13;2.22;;;;;;;;;;5020965;28;20041;-80
2023/10/07 03:35:01;;;;;;;5.93;2.17;;;;;;;;;;5022048;28;20052;-82
2023/10/07 03:37:27;;;;;;;10.15;2.15;;;;;;;;;;5021506;28;20037;-81
2023/10/07 03:40:17;;;;;;;7.07;2.42;;;;;;;;;;5021866;28;20049;-80
2023/10/07 03:42:45;;;;;;;8.48;2.65;;;;;;;;;;5022224;28;20065;-82
2023/10/07 03:45:14;;;;;;;5.82;2.30;;;;;;;;;;5028490;28;20085;-80
2023/10/07 03:47:41;;;;;;;6.63;2.40;;;;;;;;;;5028861;28;20331;-81
2023/10/07 03:50:24;;;;;;;8.30;2.85;;;;;;;;;;5029282;28;20034;-79
2023/10/07 03:52:51;;;;;;;5.93;2.28;;;;;;;;;;5025362;28;20421;-81
2023/10/07 03:55:18;;;;;;;6.32;2.50;;;;;;;;;;5026639;28;20067;-80
2023/10/07 03:57:45;;;;;;;7.55;2.47;;;;;;;;;;5031874;28;20076;-80
2023/10/07 04:00:13;;;;;;;7.30;2.67;;;;;;;;;;5028317;28;20331;-80
2023/10/07 04:02:44;;;;;;;6.75;2.33;;;;;;;;;;5025676;28;20312;-81
2023/10/07 04:05:14;;;;;;;5.80;2.10;;;;;;;;;;5036972;28;21727;-82
2023/10/07 04:07:43;;;;;;;7.93;2.28;;;;;;;;;;5033395;28;20049;-82
2023/10/07 04:12:47;;;;;;;;;;;;;;;;;;5022356;28;20691;-81
2023/10/07 04:15:18;;;;;;;8.85;2.78;;;;;;;;;;5021855;28;20844;-81
2023/10/07 04:17:45;;;;;;;6.32;2.42;;;;;;;;;;5013787;28;20130;-81
2023/10/07 04:20:19;;;;;;;5.63;2.30;;;;;;;;;;5027986;28;20030;-81
2023/10/07 04:23:00;;;;;;;10.70;2.65;;;;;;;;;;5026666;28;20041;-79
2023/10/07 04:25:28;;;;;;;6.38;2.38;;;;;;;;;;5010159;28;20723;-82
2023/10/07 04:27:55;;;;;;;6.90;2.70;;;;;;;;;;5016621;28;20056;-81
2023/10/07 04:30:28;;;;;;;7.82;2.33;;;;;;;;;;4999168;28;20064;-81
2023/10/07 04:33:00;;;;;;;11.10;2.65;;;;;;;;;;5026749;28;20050;-79
2023/10/07 04:35:30;;;;;;;8.27;2.50;;;;;;;;;;5018325;28;20401;-79
2023/10/07 04:38:38;;;;;;;8.82;3.25;;;;;;;;;;5023775;28;20306;-80
2023/10/07 04:46:23;;;;;;;8.68;2.67;;;;;;;;;;5026977;28;20053;-79
2023/10/07 04:49:12;;;;;;;6.47;2.30;;;;;;;;;;5023331;28;20373;-81
2023/10/07 04:54:10;;;;;;;7.47;3.03;;;;;;;;;;5027670;28;20092;-81
2023/10/07 04:56:39;;;;;;;9.25;3.03;;;;;;;;;;5019469;28;20041;-79
2023/10/07 04:59:06;;;;;;;7.35;2.60;;;;;;;;;;5017751;28;20046;-80
2023/10/07 05:01:33;;;;;;;7.50;2.65;;;;;;;;;;5019489;28;20092;-80
2023/10/07 05:04:04;;;;;;;6.65;2.50;;;;;;;;;;5017850;28;20038;-78
2023/10/07 05:06:34;;;;;;;6.10;2.38;;;;;;;;;;5030432;28;20033;-78
2023/10/07 05:09:09;;;;;;;7.68;2.63;;;;;;;;;;5028164;28;20135;-79
2023/10/07 05:11:40;;;;;;;8.98;2.83;;;;;;;;;;5024612;28;20042;-79
2023/10/07 05:14:08;;;;;;;9.57;2.75;;;;;;;;;;5024204;28;20038;-80
2023/10/07 05:16:36;;;;;;;8.65;2.80;;;;;;;;;;5024773;28;20077;-78
2023/10/07 05:19:08;;;;;;;9.35;2.65;;;;;;;;;;5025051;28;20081;-81
2023/10/07 05:21:37;;;;;;;9.77;3.13;;;;;;;;;;5023591;28;20038;-81
2023/10/07 05:24:09;;;;;;;8.23;2.55;;;;;;;;;;5024145;28;20046;-81
2023/10/07 05:26:40;;;;;;;9.38;2.85;;;;;;;;;;5007245;28;20042;-80
2023/10/07 05:29:12;;;;;;;8.45;2.35;;;;;;;;;;5021225;28;20084;-81
2023/10/07 05:31:39;;;;;;;6.78;2.38;;;;;;;;;;5021279;28;20046;-80
2023/10/07 05:34:06;;;;;;;6.97;2.50;;;;;;;;;;5024511;28;20038;-79
2023/10/07 05:36:33;;;;;;;5.80;1.98;;;;;;;;;;5032200;28;20042;-80
2023/10/07 05:39:00;;;;;;;5.38;2.53;;;;;;;;;;5057449;28;20071;-80
2023/10/07 05:41:28;;;;;;;10.10;2.30;;;;;;;;;;5035548;28;20049;-81
2023/10/07 05:43:55;;;;;;;5.60;2.50;;;;;;;;;;5033457;28;20077;-79
2023/10/07 05:46:22;;;;;;;8.32;2.72;;;;;;;;;;5035068;28;20480;-81
2023/10/07 05:48:51;;;;;;;6.95;2.67;;;;;;;;;;5027630;28;20037;-80
2023/10/07 05:51:18;;;;;;;5.78;2.50;;;;;;;;;;5042055;28;20068;-81
2023/10/07 05:53:48;;;;;;;10.63;2.70;;;;;;;;;;5043246;28;20061;-81
2023/10/07 05:56:15;;;;;;;6.15;2.42;;;;;;;;;;5028051;28;20052;-80
2023/10/07 05:58:45;;;;;;;10.35;3.15;;;;;;;;;;5028605;28;20073;-80
2023/10/07 06:01:14;;;;;;;6.93;2.25;;;;;;;;;;5032727;28;20050;-80
2023/10/07 06:03:42;;;;;;;5.70;2.58;;;;;;;;;;5026344;28;20042;-80
2023/10/07 06:06:10;;;;;;;6.55;2.60;;;;;;;;;;5031655;28;20044;-80
2023/10/07 06:08:38;;;;;;;6.60;2.35;;;;;;;;;;5023591;28;20054;-80
2023/10/07 06:11:04;;;;;;;7.15;2.50;;;;;;;;;;5030125;28;20041;-79
2023/10/07 06:13:33;;;;;;;6.53;2.53;;;;;;;;;;5027783;28;20057;-79
2023/10/07 06:16:04;;;;;;;6.88;2.08;;;;;;;;;;5031097;28;20034;-79
2023/10/07 06:18:33;;;;;;;8.80;2.60;;;;;;;;;;5031457;28;20068;-77
2023/10/07 06:21:17;;;;;;;8.88;2.47;;;;;;;;;;5031131;28;20073;-79
2023/10/07 06:23:44;;;;;;;6.28;2.33;;;;;;;;;;5022795;28;20153;-79
2023/10/07 06:26:12;;;;;;;8.57;2.83;;;;;;;;;;5028209;28;20052;-78
2023/10/07 06:28:48;;;;;;;7.80;2.58;;;;;;;;;;5025602;28;20096;-79
2023/10/07 06:31:22;;;;;;;5.55;2.50;;;;;;;;;;5031668;28;20144;-80
2023/10/07 06:34:32;;;;;;;8.15;2.70;;;;;;;;;;5025977;28;20049;-79
2023/10/07 06:36:40;;;;;;;8.80;2.85;;;;;;;;;;5010693;28;20202;-80
2023/10/07 06:39:10;;;;;;;9.02;2.78;;;;;;;;;;5026188;28;20046;-79
2023/10/07 06:41:38;;;;;;;8.90;2.63;;;;;;;;;;5043515;28;20064;-78
2023/10/07 06:44:08;;;;;;;8.98;2.78;;;;;;;;;;5035180;28;20064;-79
2023/10/07 06:46:44;;;;;;;10.48;2.78;;;;;;;;;;5029923;28;20117;-79
2023/10/07 06:49:18;;;;;;;8.10;2.25;;;;;;;;;;5014685;28;20045;-79
2023/10/07 06:51:53;;;;;;;11.48;2.55;;;;;;;;;;5019538;28;20290;-81
2023/10/07 06:54:23;;;;;;;10.00;2.55;;;;;;;;;;5019833;28;20088;-80
2023/10/07 06:56:51;;;;;;;7.30;2.60;;;;;;;;;;5020635;28;20076;-79
2023/10/07 06:59:18;;;;;;;6.57;2.50;;;;;;;;;;5020089;28;20052;-80
2023/10/07 07:04:14;;;;;;;5.63;2.33;;;;;;;;;;5021043;28;20049;-80
2023/10/07 07:06:44;;;;;;;7.72;2.08;;;;;;;;;;5025656;28;20049;-79
2023/10/07 07:12:09;;;;;;;7.78;2.33;;;;;;;;;;5009857;28;20633;-78
2023/10/07 07:14:36;;;;;;;8.25;2.35;;;;;;;;;;5030607;28;20064;-79
2023/10/07 07:20:19;;;;;;;6.25;2.53;;;;;;;;;;5024795;28;20518;-80
2023/10/07 07:22:43;;;;;;;6.47;2.38;;;;;;;;;;5020764;28;20398;-80
2023/10/07 07:25:12;;;;;;;6.10;2.10;;;;;;;;;;5032307;28;20052;-80
2023/10/07 07:27:45;;;;;;;7.63;2.80;;;;;;;;;;5026493;28;20074;-80
2023/10/07 07:30:19;;;;;;;7.03;2.47;;;;;;;;;;5023399;28;20416;-78
2023/10/07 07:32:55;;;;;;;8.63;2.47;;;;;;;;;;5023215;28;20061;-80
2023/10/07 07:35:37;;;;;;;4.68;2.03;;;;;;;;;;5035067;28;20045;-80
2023/10/07 07:41:07;;;;;;;9.20;2.53;;;;;;;;;;5023549;28;20252;-80
2023/10/07 07:43:34;;;;;;;7.53;2.00;;;;;;;;;;5048258;28;20699;-80
2023/10/07 07:46:30;;;;;;;7.72;2.45;;;;;;;;;;5028051;28;20050;-81
2023/10/07 07:49:04;;;;;;;7.15;2.42;;;;;;;;;;5017220;28;20119;-80
2023/10/07 07:51:37;;;;;;;7.32;2.40;;;;;;;;;;5022001;28;20054;-80
2023/10/07 07:54:05;;;;;;;6.88;2.50;;;;;;;;;;5030757;28;20194;-78
2023/10/07 07:56:33;;;;;;;6.43;2.33;;;;;;;;;;5018385;28;20065;-78
2023/10/07 07:59:00;;;;;;;7.70;2.65;;;;;;;;;;5017500;28;20053;-80
2023/10/07 08:01:30;;;;;;;7.53;2.65;;;;;;;;;;5030416;28;20049;-80
2023/10/07 08:03:59;;;;;;;8.27;3.03;;;;;;;;;;5046707;28;20125;-80
2023/10/07 08:06:26;;;;;;;9.20;3.20;;;;;;;;;;5028600;28;20041;-78
2023/10/07 08:08:54;;;;;;;7.32;2.50;;;;;;;;;;5034480;28;20042;-78
2023/10/07 08:11:21;;;;;;;7.15;2.67;;;;;;;;;;5033564;28;20076;-79
2023/10/07 08:13:53;;;;;;;7.75;2.40;;;;;;;;;;5034900;28;20450;-79
2023/10/07 08:16:20;;;;;;;7.72;2.83;;;;;;;;;;5041315;28;20061;-79
2023/10/07 08:18:54;;;;;;;6.57;2.40;;;;;;;;;;5039038;28;20049;-79
2023/10/07 08:21:28;;;;;;;7.22;2.75;;;;;;;;;;5057012;28;20058;-79
2023/10/07 08:24:01;;;;;;;7.40;2.20;;;;;;;;;;5040450;28;20051;-81
2023/10/07 08:26:28;;;;;;;8.07;3.00;;;;;;;;;;5027577;28;20093;-80
2023/10/07 08:31:37;;;;;;;7.97;2.78;;;;;;;;;;5047154;28;20046;-77
2023/10/07 08:36:47;;;;;;;9.25;3.15;;;;;;;;;;5041131;28;20049;-81
2023/10/07 08:39:27;;;;;;;8.52;2.80;;;;;;;;;;5032702;28;20165;-81
2023/10/07 08:41:58;;;;;;;10.55;3.00;;;;;;;;;;5029059;28;20069;-79
2023/10/07 08:44:31;;;;;;;5.93;2.40;;;;;;;;;;5027297;28;20436;-81
2023/10/07 08:47:05;;;;;;;7.90;3.05;;;;;;;;;;5023245;28;20484;-80
2023/10/07 08:49:35;;;;;;;5.97;2.30;;;;;;;;;;5020759;28;20052;-81
2023/10/07 08:52:09;;;;;;;7.85;2.75;;;;;;;;;;5020435;28;20077;-80
2023/10/07 08:54:44;;;;;;;11.80;2.95;;;;;;;;;;5021468;28;20054;-80
2023/10/07 08:57:22;;;;;;;7.30;2.85;;;;;;;;;;5020384;28;20041;-80
2023/10/07 08:59:59;;;;;;;8.55;2.80;;;;;;;;;;5019162;28;20114;-79
2023/10/07 09:02:26;;;;;;;6.38;2.63;;;;;;;;;;5010272;28;20057;-80
2023/10/07 09:04:55;;;;;;;8.05;2.75;;;;;;;;;;5018307;28;20046;-80
2023/10/07 09:07:22;;;;;;;8.20;3.08;;;;;;;;;;5018413;28;20065;-81
2023/10/07 09:09:49;;;;;;;8.23;3.10;;;;;;;;;;5017980;28;20053;-80
2023/10/07 09:12:18;;;;;;;6.55;2.90;;;;;;;;;;5016343;28;20123;-81
2023/10/07 09:14:52;;;;;;;7.20;2.90;;;;;;;;;;5026255;28;20480;-80
2023/10/07 09:17:23;;;;;;;6.90;2.60;;;;;;;;;;5025722;28;20794;-78
2023/10/07 09:19:57;;;;;;;7.85;2.78;;;;;;;;;;5051177;28;20049;-80
2023/10/07 09:22:27;;;;;;;10.38;2.97;;;;;;;;;;5021388;28;20044;-80
2023/10/07 09:25:08;;;;;;;7.18;2.85;;;;;;;;;;5018760;28;20354;-81
2023/10/07 09:27:38;;;;;;;7.40;2.67;;;;;;;;;;5017531;28;20049;-79
2023/10/07 09:30:34;;;;;;;7.88;2.47;;;;;;;;;;5020225;28;20054;-80
2023/10/07 09:32:55;;;;;;;8.18;2.72;;;;;;;;;;5039774;28;20033;-81
2023/10/07 09:35:25;;;;;;;7.28;2.97;;;;;;;;;;5038554;28;20041;-80
2023/10/07 09:37:55;;;;;;;8.13;3.03;;;;;;;;;;5045930;28;20041;-79
2023/10/07 09:43:13;;;;;;;8.05;3.25;;;;;;;;;;5052550;28;20064;-79
2023/10/07 09:45:40;;;;;;;7.75;2.92;;;;;;;;;;5042067;28;20076;-80
2023/10/07 09:48:08;;;;;;;11.02;2.88;;;;;;;;;;5036077;28;20049;-79
2023/10/07 09:50:37;;;;;;;9.32;3.20;;;;;;;;;;5020545;28;20045;-79
2023/10/07 09:53:14;;;;;;;10.68;3.15;;;;;;;;;;5049975;28;20045;-80
2023/10/07 09:56:04;;;;;;;7.63;2.83;;;;;;;;;;5034045;28;20538;-81
2023/10/07 09:58:44;;;;;;;6.97;2.83;;;;;;;;;;5027142;28;20649;-80
2023/10/07 10:01:29;;;;;;;9.13;3.00;;;;;;;;;;5043909;28;20045;-80
2023/10/07 10:03:59;;;;;;;8.10;2.90;;;;;;;;;;5043158;28;20052;-83
2023/10/07 10:06:47;;;;;;;7.95;2.70;;;;;;;;;;5028557;28;20041;-82
2023/10/07 10:09:23;;;;;;;7.25;2.55;;;;;;;;;;5039559;28;20053;-82
2023/10/07 10:12:18;;;;;;;7.60;2.65;;;;;;;;;;5054033;28;20294;-79
2023/10/07 10:14:56;;;;;;;8.00;2.55;;;;;;;;;;5045805;28;20235;-81
2023/10/07 10:17:34;;;;;;;7.57;3.20;;;;;;;;;;5045604;28;20045;-78
2023/10/07 10:20:12;;;;;;;9.45;3.00;;;;;;;;;;5046176;28;20059;-79
2023/10/07 10:22:52;;;;;;;9.35;3.15;;;;;;;;;;5044255;28;20046;-80
2023/10/07 10:25:37;;;;;;;6.95;2.70;;;;;;;;;;5042715;28;20148;-81
2023/10/07 10:28:06;;;;;;;9.55;2.65;;;;;;;;;;5040812;28;20038;-81
2023/10/07 10:30:33;;;;;;;6.88;2.70;;;;;;;;;;5035705;28;20049;-82
2023/10/07 10:33:08;;;;;;;11.68;3.42;;;;;;;;;;5045563;28;20048;-81
2023/10/07 10:35:40;;;;;;;8.20;2.63;;;;;;;;;;5048697;28;20132;-81
2023/10/07 10:38:09;;;;;;;6.47;2.72;;;;;;;;;;5037213;28;20061;-81
2023/10/07 10:40:37;;;;;;;8.63;2.70;;;;;;;;;;5054231;28;20133;-81
2023/10/07 10:43:04;;;;;;;7.82;3.10;;;;;;;;;;5042085;28;20100;-82
2023/10/07 10:45:31;;;;;;;7.45;3.05;;;;;;;;;;5079880;28;20044;-81
2023/10/07 10:48:01;;;;;;;7.90;3.10;;;;;;;;;;5056505;28;20083;-82
2023/10/07 10:50:32;;;;;;;8.07;2.92;;;;;;;;;;5063050;28;20296;-80
2023/10/07 10:53:00;;;;;;;6.57;2.80;;;;;;;;;;5055477;28;20025;-81
2023/10/07 10:55:38;;;;;;;7.55;2.58;;;;;;;;;;5040728;28;20163;-82
2023/10/07 10:58:16;;;;;;;8.27;2.78;;;;;;;;;;5043617;28;21759;-81
2023/10/07 11:00:48;;;;;;;12.43;3.17;;;;;;;;;;5040320;28;20115;-81
2023/10/07 11:03:20;;;;;;;11.23;3.00;;;;;;;;;;5074547;28;20084;-81
2023/10/07 11:05:49;;;;;;;5.20;2.47;;;;;;;;;;5050504;28;20045;-82
2023/10/07 11:08:23;;;;;;;11.10;2.92;;;;;;;;;;5052366;28;20053;-81
2023/10/07 11:10:53;;;;;;;9.57;2.47;;;;;;;;;;5043237;28;20053;-82
2023/10/07 11:13:20;;;;;;;10.23;2.70;;;;;;;;;;5045793;28;20500;-81
2023/10/07 11:15:58;;;;;;;7.78;3.00;;;;;;;;;;5038239;28;20041;-81
2023/10/07 11:18:25;;;;;;;6.82;2.40;;;;;;;;;;5055700;28;20372;-80
2023/10/07 11:20:54;;;;;;;8.80;2.35;;;;;;;;;;5041235;28;20049;-81
2023/10/07 11:23:21;;;;;;;7.03;2.58;;;;;;;;;;5053728;28;20049;-82
2023/10/07 11:25:50;;;;;;;9.43;2.65;;;;;;;;;;5056994;28;20047;-82
2023/10/07 11:28:22;;;;;;;9.52;2.88;;;;;;;;;;5048973;28;20050;-80
2023/10/07 11:30:51;;;;;;;7.10;2.33;;;;;;;;;;5053020;28;20102;-80
2023/10/07 11:33:19;;;;;;;9.65;2.72;;;;;;;;;;5044615;28;20419;-81
2023/10/07 11:35:56;;;;;;;7.45;2.85;;;;;;;;;;5038732;28;20065;-82
2023/10/07 11:38:25;;;;;;;7.13;2.90;;;;;;;;;;5046377;28;20061;-81
2023/10/07 11:40:52;;;;;;;8.15;2.85;;;;;;;;;;5037016;28;20072;-81
2023/10/07 11:43:19;;;;;;;10.38;2.92;;;;;;;;;;5038327;28;20050;-82
2023/10/07 11:45:47;;;;;;;6.90;2.80;;;;;;;;;;5042872;28;20052;-81
2023/10/07 11:48:14;;;;;;;7.22;2.60;;;;;;;;;;5049888;28;20439;-82
2023/10/07 11:50:41;;;;;;;8.02;2.83;;;;;;;;;;5040119;28;20049;-82
2023/10/07 11:53:08;;;;;;;8.75;2.70;;;;;;;;;;5040796;28;20101;-81
2023/10/07 11:55:35;;;;;;;9.05;2.65;;;;;;;;;;5047747;28;20147;-81
2023/10/07 11:58:02;;;;;;;8.25;2.80;;;;;;;;;;5050270;28;20029;-80
2023/10/07 12:00:31;;;;;;;9.65;2.72;;;;;;;;;;5056669;28;20107;-81
2023/10/07 12:02:58;;;;;;;5.97;2.53;;;;;;;;;;5047620;28;20033;-81
2023/10/07 12:05:28;;;;;;;5.30;2.38;;;;;;;;;;5044879;28;20056;-81
2023/10/07 12:08:04;;;;;;;6.13;2.53;;;;;;;;;;5044569;28;20054;-81
2023/10/07 12:10:33;;;;;;;6.10;2.63;;;;;;;;;;5043216;28;20037;-82
2023/10/07 12:13:00;;;;;;;9.55;2.47;;;;;;;;;;5051078;28;20041;-81
2023/10/07 12:15:27;;;;;;;6.43;2.50;;;;;;;;;;5039756;28;20076;-82
2023/10/07 12:17:54;;;;;;;8.05;2.70;;;;;;;;;;5049086;28;20044;-82
2023/10/07 12:20:22;;;;;;;6.55;2.55;;;;;;;;;;5041756;28;20049;-80
2023/10/07 12:22:49;;;;;;;6.85;2.65;;;;;;;;;;5051377;28;20045;-81
2023/10/07 12:25:16;;;;;;;6.32;2.63;;;;;;;;;;5050140;28;20060;-81
2023/10/07 12:27:43;;;;;;;9.18;2.35;;;;;;;;;;5049297;28;20049;-79
2023/10/07 12:30:11;;;;;;;5.05;2.42;;;;;;;;;;5054428;28;20045;-80
2023/10/07 12:32:39;;;;;;;6.90;2.75;;;;;;;;;;5051774;28;20433;-81
2023/10/07 12:35:09;;;;;;;5.32;2.53;;;;;;;;;;5040807;28;20248;-81
2023/10/07 12:37:39;;;;;;;6.15;2.33;;;;;;;;;;5049277;28;20260;-81
2023/10/07 12:40:13;;;;;;;9.45;2.72;;;;;;;;;;5040149;28;21443;-81
2023/10/07 12:42:40;;;;;;;5.47;2.20;;;;;;;;;;5045831;28;20166;-81
2023/10/07 12:45:09;;;;;;;6.90;2.67;;;;;;;;;;5055392;28;20278;-80
2023/10/07 12:47:39;;;;;;;6.72;2.15;;;;;;;;;;5056747;28;20494;-81
2023/10/07 12:52:52;;;;;;;;;;;;;;;;;;5051919;28;20420;-80
2023/10/07 12:55:19;;;;;;;7.28;2.15;;;;;;;;;;5052953;28;19921;-80
2023/10/07 12:57:49;;;;;;;5.60;2.17;;;;;;;;;;5057672;28;20049;-80
2023/10/07 13:00:21;;;;;;;7.40;2.53;;;;;;;;;;5058282;28;20049;-80
2023/10/07 13:02:49;;;;;;;7.63;2.50;;;;;;;;;;5045263;28;20045;-81
2023/10/07 13:05:19;;;;;;;6.72;2.20;;;;;;;;;;5050418;28;20083;-81
2023/10/07 13:07:56;;;;;;;5.75;2.03;;;;;;;;;;5063273;28;20036;-80
2023/10/07 13:10:23;;;;;;;5.78;2.42;;;;;;;;;;5060655;28;20041;-82
2023/10/07 13:12:55;;;;;;;5.35;2.30;;;;;;;;;;5050793;28;20060;-79
2023/10/07 13:15:30;;;;;;;7.18;2.55;;;;;;;;;;5047779;28;20050;-80
2023/10/07 13:18:03;;;;;;;6.18;2.28;;;;;;;;;;5049023;28;20048;-79
2023/10/07 13:20:33;;;;;;;7.00;2.35;;;;;;;;;;5048249;28;20052;-81
2023/10/07 13:23:05;;;;;;;7.25;2.40;;;;;;;;;;5059757;28;20033;-80
2023/10/07 13:25:33;;;;;;;6.35;2.15;;;;;;;;;;5033632;28;20041;-79
2023/10/07 13:28:01;;;;;;;9.65;2.70;;;;;;;;;;5035156;28;20052;-82
2023/10/07 13:30:30;;;;;;;5.35;2.47;;;;;;;;;;5034146;28;20038;-81
2023/10/07 13:32:57;;;;;;;6.88;2.33;;;;;;;;;;5049234;28;20128;-82
2023/10/07 13:35:27;;;;;;;6.57;2.15;;;;;;;;;;5041254;28;20054;-81
2023/10/07 13:37:56;;;;;;;4.80;2.33;;;;;;;;;;5057520;28;20045;-80
2023/10/07 13:40:23;;;;;;;7.55;2.90;;;;;;;;;;5060520;28;20048;-82
2023/10/07 13:42:51;;;;;;;7.30;2.45;;;;;;;;;;5060170;28;20076;-82
2023/10/07 13:45:22;;;;;;;4.85;2.10;;;;;;;;;;5052328;28;20049;-80
2023/10/07 13:47:48;;;;;;;5.82;2.35;;;;;;;;;;5060841;28;20045;-79
2023/10/07 13:50:16;;;;;;;7.95;2.70;;;;;;;;;;5048449;28;20049;-82
2023/10/07 13:55:33;;;;;;;9.38;2.70;;;;;;;;;;5054947;28;20553;-79
2023/10/07 13:58:00;;;;;;;6.05;2.53;;;;;;;;;;5059370;28;20115;-80
2023/10/07 14:03:08;;;;;;;9.75;2.50;;;;;;;;;;5062419;28;20037;-81
2023/10/07 14:05:41;;;;;;;5.75;2.22;;;;;;;;;;5058845;28;20113;-80
2023/10/07 14:08:15;;;;;;;5.57;2.15;;;;;;;;;;5058855;28;20041;-81
2023/10/07 14:10:50;;;;;;;6.70;2.70;;;;;;;;;;5048852;28;20049;-80
2023/10/07 14:13:23;;;;;;;11.75;2.50;;;;;;;;;;5055220;28;20049;-80
2023/10/07 14:15:50;;;;;;;5.00;2.30;;;;;;;;;;5065887;28;20211;-79
2023/10/07 14:18:20;;;;;;;7.47;2.58;;;;;;;;;;5071062;28;20059;-78
2023/10/07 14:20:54;;;;;;;7.10;2.85;;;;;;;;;;5068473;28;20397;-81
2023/10/07 14:23:21;;;;;;;8.93;2.30;;;;;;;;;;5065210;28;20651;-80
2023/10/07 14:25:50;;;;;;;5.07;2.40;;;;;;;;;;5059456;28;20068;-81
2023/10/07 14:28:20;;;;;;;5.30;2.50;;;;;;;;;;5055617;28;20319;-81
2023/10/07 14:30:48;;;;;;;9.88;2.47;;;;;;;;;;5045523;28;20408;-80
2023/10/07 14:33:15;;;;;;;8.27;2.40;;;;;;;;;;5049683;28;20518;-79
2023/10/07 14:35:44;;;;;;;7.50;2.78;;;;;;;;;;5046392;28;20083;-80
2023/10/07 14:38:11;;;;;;;7.72;2.85;;;;;;;;;;5055141;28;20490;-82
2023/10/07 14:40:38;;;;;;;8.63;2.97;;;;;;;;;;5048689;28;20046;-81
2023/10/07 14:43:05;;;;;;;8.80;2.97;;;;;;;;;;5046793;28;20041;-80
2023/10/07 14:45:33;;;;;;;5.32;2.40;;;;;;;;;;5066098;28;20045;-81
2023/10/07 14:48:01;;;;;;;5.30;2.80;;;;;;;;;;5049453;28;20060;-79
2023/10/07 14:50:28;;;;;;;7.93;3.22;;;;;;;;;;5034949;28;20192;-80
2023/10/07 14:52:55;;;;;;;8.38;2.75;;;;;;;;;;5041999;28;20041;-81
2023/10/07 14:55:25;;;;;;;6.47;2.70;;;;;;;;;;5040234;28;20342;-80
2023/10/07 14:57:53;;;;;;;8.07;3.00;;;;;;;;;;5055315;28;20531;-79
2023/10/07 15:00:20;;;;;;;7.68;2.63;;;;;;;;;;5045583;28;20075;-79
2023/10/07 15:02:46;;;;;;;6.35;2.80;;;;;;;;;;5046984;28;20056;-81
2023/10/07 15:05:14;;;;;;;8.00;2.40;;;;;;;;;;5039372;28;20225;-82
2023/10/07 15:07:40;;;;;;;7.85;2.72;;;;;;;;;;5059916;28;20076;-81
2023/10/07 15:10:07;;;;;;;10.32;3.15;;;;;;;;;;5061813;28;20052;-81
2023/10/07 15:12:34;;;;;;;7.47;2.78;;;;;;;;;;5045390;28;20056;-81
2023/10/07 15:15:01;;;;;;;7.68;2.60;;;;;;;;;;5044872;28;20068;-80
2023/10/07 15:17:27;;;;;;;8.40;3.28;;;;;;;;;;5051496;28;20059;-81
2023/10/07 15:19:54;;;;;;;6.82;2.60;;;;;;;;;;5042236;28;20050;-81
2023/10/07 15:22:21;;;;;;;10.50;3.63;;;;;;;;;;5045992;28;20072;-80
2023/10/07 15:24:49;;;;;;;6.20;2.75;;;;;;;;;;5048113;28;20045;-79
2023/10/07 15:27:16;;;;;;;8.27;2.90;;;;;;;;;;5048140;28;20132;-74
2023/10/07 15:29:43;;;;;;;7.03;2.60;;;;;;;;;;5029540;28;20045;-74
2023/10/07 15:32:09;;;;;;;9.15;2.58;;;;;;;;;;5028364;28;20037;-75
2023/10/07 15:34:36;;;;;;;6.50;2.30;;;;;;;;;;5040784;28;20025;-78
2023/10/07 15:37:04;;;;;;;7.15;2.45;;;;;;;;;;5041644;28;20041;-80
2023/10/07 15:39:32;;;;;;;5.82;2.45;;;;;;;;;;5052276;28;20041;-80
2023/10/07 15:42:01;;;;;;;6.75;2.22;;;;;;;;;;5041856;28;20045;-81
2023/10/07 15:44:28;;;;;;;7.32;2.80;;;;;;;;;;5017844;28;20145;-81
2023/10/07 15:46:55;;;;;;;11.50;3.13;;;;;;;;;;5042687;28;20269;-80
2023/10/07 15:49:22;;;;;;;8.18;2.67;;;;;;;;;;5043714;28;20133;-81
2023/10/07 15:51:51;;;;;;;7.80;2.53;;;;;;;;;;5042030;28;20041;-82
2023/10/07 15:54:17;;;;;;;8.50;3.03;;;;;;;;;;5034474;28;20057;-81
2023/10/07 15:56:44;;;;;;;10.73;2.88;;;;;;;;;;5015613;28;20057;-80
2023/10/07 15:59:11;;;;;;;12.90;2.78;;;;;;;;;;5015260;28;20053;-80